Saint-Joseph-De-Sorel, Canada
Current Conditions -  °F | °C
As of 8:00 PM on Monday 26 Jan 2015 (Local Time) from CYRQ Reporting Station
Clear Clear  
Wind Chill: -18°   Ceiling: Unl
Heat Index: -2°   Visibility: 9mi
Dew Point: -9°   Wind: 9mph
Humidity: 71%   Direction: 20°NNE
Pressure: 30.24"   Gusts: NA
Location:  46.03°N, 73.13°W
Report Text: CYRQ 270100Z AUTO 02008KT 9SM CLR M19/M23 A3024 RMK SLP248
Loading
Personal Weather Stations






























Interactive Weather Map New forecast layout! Learn more

10-Day Weather Forecast

Advertisements
Track Severe Weather on mobile